createdAt,value
2023-04-01T00:00:15.836Z,30.114
2023-04-01T00:05:15.818Z,30.115
2023-04-01T00:10:15.878Z,30.114
2023-04-01T00:15:15.789Z,30.116
2023-04-01T00:20:15.922Z,30.121
2023-04-01T00:25:15.829Z,30.119
2023-04-01T00:30:15.796Z,30.125
2023-04-01T00:35:15.947Z,30.122
2023-04-01T00:40:15.841Z,30.121
2023-04-01T00:45:15.803Z,30.118
2023-04-01T00:50:16.073Z,30.116
2023-04-01T00:55:15.883Z,30.112
2023-04-01T01:00:15.944Z,30.111
2023-04-01T01:05:15.933Z,30.110
2023-04-01T01:10:15.836Z,30.110
2023-04-01T01:15:15.944Z,30.110
2023-04-01T01:20:25.508Z,30.109
2023-04-01T01:25:16.008Z,30.104
2023-04-01T01:30:16.076Z,30.104
2023-04-01T01:35:15.945Z,30.104
2023-04-01T01:40:15.921Z,30.096
2023-04-01T01:45:15.917Z,30.096
2023-04-01T01:50:16.098Z,30.096
2023-04-01T01:55:15.903Z,30.095
2023-04-01T02:00:16.181Z,30.099
2023-04-01T02:05:15.946Z,30.093
2023-04-01T02:10:16.057Z,30.083
2023-04-01T02:15:16.028Z,30.079
2023-04-01T02:20:16.011Z,30.075
2023-04-01T02:25:16.129Z,30.075
2023-04-01T02:30:16.054Z,30.070
2023-04-01T02:35:16.223Z,30.072
2023-04-01T02:40:16.117Z,30.066
2023-04-01T02:45:16.121Z,30.065
2023-04-01T02:50:16.102Z,30.066
2023-04-01T02:55:19.226Z,30.054
2023-04-01T03:00:16.080Z,30.044
2023-04-01T03:05:16.162Z,30.042
2023-04-01T03:10:16.165Z,30.035
2023-04-01T03:15:16.127Z,30.030
2023-04-01T03:20:16.227Z,30.024
2023-04-01T03:25:16.178Z,30.016
2023-04-01T03:30:16.290Z,30.016
2023-04-01T03:35:16.232Z,30.010
2023-04-01T03:40:16.358Z,30.007
2023-04-01T03:45:16.280Z,30.007
2023-04-01T03:50:16.539Z,30.000
2023-04-01T03:55:16.117Z,29.993
2023-04-01T04:00:17.471Z,29.983
2023-04-01T04:05:17.346Z,29.974
2023-04-01T04:10:17.303Z,29.968
2023-04-01T04:15:17.279Z,29.961
2023-04-01T04:20:17.273Z,29.959
2023-04-01T04:25:17.346Z,29.959
2023-04-01T04:30:17.334Z,29.950
2023-04-01T04:35:17.438Z,29.947
2023-04-01T04:40:17.290Z,29.946
2023-04-01T04:45:17.359Z,29.942
2023-04-01T04:50:17.387Z,29.942
2023-04-01T04:55:17.426Z,29.933
2023-04-01T05:00:17.337Z,29.933
2023-04-01T05:05:17.401Z,29.933
2023-04-01T05:10:17.392Z,29.927
2023-04-01T05:15:16.321Z,29.919
2023-04-01T05:20:15.393Z,29.915
2023-04-01T05:25:15.508Z,29.909
2023-04-01T05:30:15.397Z,29.901
2023-04-01T05:35:15.568Z,29.898
2023-04-01T05:40:15.451Z,29.895
2023-04-01T05:45:15.513Z,29.895
2023-04-01T05:50:15.476Z,29.895
2023-04-01T05:55:15.579Z,29.896
2023-04-01T06:00:15.562Z,29.897
2023-04-01T06:05:15.495Z,29.887
2023-04-01T06:10:15.476Z,29.875
2023-04-01T06:15:15.545Z,29.873
2023-04-01T06:20:15.495Z,29.872
2023-04-01T06:25:15.495Z,29.866
2023-04-01T06:30:15.515Z,29.860
2023-04-01T06:35:15.693Z,29.852
2023-04-01T06:40:15.549Z,29.852
2023-04-01T06:45:15.625Z,29.851
2023-04-01T06:50:15.629Z,29.849
2023-04-01T06:55:15.764Z,29.846
2023-04-01T07:00:15.747Z,29.845
2023-04-01T07:05:15.898Z,29.845
2023-04-01T07:10:15.623Z,29.845
2023-04-01T07:15:15.669Z,29.839
2023-04-01T07:20:15.678Z,29.828
2023-04-01T07:25:15.671Z,29.825
2023-04-01T07:30:15.627Z,29.824
2023-04-01T07:35:15.784Z,29.816
2023-04-01T07:40:15.692Z,29.812
2023-04-01T07:45:18.830Z,29.812
2023-04-01T07:50:15.729Z,29.807
2023-04-01T07:55:15.613Z,29.794
2023-04-01T08:00:15.829Z,29.796
2023-04-01T08:05:15.761Z,29.794
2023-04-01T08:10:15.846Z,29.790
2023-04-01T08:15:15.859Z,29.781
2023-04-01T08:20:15.799Z,29.780
2023-04-01T08:25:15.798Z,29.776
2023-04-01T08:30:15.860Z,29.777
2023-04-01T08:35:15.822Z,29.770
2023-04-01T08:40:15.822Z,29.767
2023-04-01T08:45:15.830Z,29.762
2023-04-01T08:50:15.817Z,29.759
2023-04-01T08:55:15.907Z,29.756
2023-04-01T09:00:15.884Z,29.757
2023-04-01T09:05:15.824Z,29.751
2023-04-01T09:10:15.883Z,29.753
2023-04-01T09:15:16.024Z,29.748
2023-04-01T09:20:15.937Z,29.763
2023-04-01T09:25:15.867Z,29.757
2023-04-01T09:30:16.019Z,29.748
2023-04-01T09:35:16.299Z,29.757
2023-04-01T09:40:16.005Z,29.753
2023-04-01T09:45:15.933Z,29.749
2023-04-01T09:50:16.097Z,29.751
2023-04-01T09:55:15.886Z,29.742
2023-04-01T10:00:16.009Z,29.736
2023-04-01T10:05:16.052Z,29.732
2023-04-01T10:10:16.008Z,29.729
2023-04-01T10:15:16.042Z,29.720
2023-04-01T10:20:16.059Z,29.705
2023-04-01T10:25:16.208Z,29.710
2023-04-01T10:30:16.052Z,29.718
2023-04-01T10:35:16.114Z,29.714
2023-04-01T10:40:16.047Z,29.706
2023-04-01T10:45:16.090Z,29.701
2023-04-01T10:50:16.053Z,29.693
2023-04-01T10:55:16.195Z,29.697
2023-04-01T11:00:16.253Z,29.691
2023-04-01T11:05:21.764Z,29.689
2023-04-01T11:10:16.142Z,29.688
2023-04-01T11:15:16.133Z,29.686
2023-04-01T11:20:16.197Z,29.680
2023-04-01T11:25:16.134Z,29.675
2023-04-01T11:30:16.183Z,29.679
2023-04-01T11:35:16.202Z,29.682
2023-04-01T11:40:16.223Z,29.677
2023-04-01T11:45:16.177Z,29.674
2023-04-01T11:50:16.238Z,29.670
2023-04-01T11:55:16.200Z,29.652
2023-04-01T12:00:16.248Z,29.662
2023-04-01T12:05:16.258Z,29.669
2023-04-01T12:10:16.208Z,29.661
2023-04-01T12:15:16.262Z,29.654
2023-04-01T12:20:16.265Z,29.636
2023-04-01T12:25:16.437Z,29.643
2023-04-01T12:30:16.300Z,29.643
2023-04-01T12:35:16.338Z,29.645
2023-04-01T12:40:16.376Z,29.645
2023-04-01T12:45:16.359Z,29.642
2023-04-01T12:50:16.308Z,29.632
2023-04-01T12:55:16.363Z,29.625
2023-04-01T13:00:16.329Z,29.626
2023-04-01T13:05:16.332Z,29.607
2023-04-01T13:10:16.370Z,29.610
2023-04-01T13:15:16.409Z,29.604
2023-04-01T13:20:16.437Z,29.595
2023-04-01T13:25:16.343Z,29.590
2023-04-01T13:30:16.458Z,29.586
2023-04-01T13:35:16.499Z,29.580
2023-04-01T13:40:16.549Z,29.578
2023-04-01T13:45:16.589Z,29.571
2023-04-01T13:50:16.654Z,29.567
2023-04-01T13:55:16.386Z,29.568
2023-04-01T14:00:16.569Z,29.560
2023-04-01T14:05:16.616Z,29.556
2023-04-01T14:10:16.618Z,29.555
2023-04-01T14:15:16.518Z,29.550
2023-04-01T14:20:16.504Z,29.546
2023-04-01T14:25:16.574Z,29.540
2023-04-01T14:30:16.542Z,29.537
2023-04-01T14:35:16.557Z,29.534
2023-04-01T14:40:16.556Z,29.528
2023-04-01T14:45:16.679Z,29.530
2023-04-01T14:50:16.544Z,29.530
2023-04-01T14:55:16.612Z,29.525
2023-04-01T15:00:16.788Z,29.518
2023-04-01T15:05:16.819Z,29.508
2023-04-01T15:10:16.625Z,29.506
2023-04-01T15:15:16.760Z,29.508
2023-04-01T15:20:16.604Z,29.510
2023-04-01T15:25:16.581Z,29.510
2023-04-01T15:30:16.791Z,29.504
2023-04-01T15:35:16.646Z,29.496
2023-04-01T15:40:16.659Z,29.492
2023-04-01T15:45:16.716Z,29.487
2023-04-01T15:50:16.614Z,29.486
2023-04-01T15:55:16.626Z,29.479
2023-04-01T16:00:16.655Z,29.472
2023-04-01T16:05:16.678Z,29.475
2023-04-01T16:10:16.733Z,29.467
2023-04-01T16:15:16.804Z,29.464
2023-04-01T16:20:16.812Z,29.461
2023-04-01T16:25:16.784Z,29.460
2023-04-01T16:30:16.804Z,29.459
2023-04-01T16:35:16.783Z,29.457
2023-04-01T16:40:16.748Z,29.457
2023-04-01T16:45:17.116Z,29.456
2023-04-01T16:50:16.948Z,29.448
2023-04-01T16:55:16.834Z,29.449
2023-04-01T17:00:16.795Z,29.445
2023-04-01T17:05:16.872Z,29.437
2023-04-01T17:10:16.900Z,29.436
2023-04-01T17:15:16.829Z,29.436
2023-04-01T17:20:16.894Z,29.434
2023-04-01T17:25:16.935Z,29.428
2023-04-01T17:30:17.010Z,29.422
2023-04-01T17:35:16.934Z,29.414
2023-04-01T17:40:16.906Z,29.409
2023-04-01T17:45:17.034Z,29.399
2023-04-01T17:50:17.095Z,29.397
2023-04-01T17:55:16.919Z,29.391
2023-04-01T18:00:16.987Z,29.386
2023-04-01T18:05:17.107Z,29.371
2023-04-01T18:10:16.956Z,29.361
2023-04-01T18:15:17.131Z,29.352
2023-04-01T18:20:16.980Z,29.361
2023-04-01T18:25:16.995Z,29.356
2023-04-01T18:30:17.076Z,29.349
2023-04-01T18:35:17.030Z,29.335
2023-04-01T18:40:16.955Z,29.321
2023-04-01T18:45:17.024Z,29.331
2023-04-01T18:50:17.089Z,29.331
2023-04-01T18:55:17.027Z,29.320
2023-04-01T19:00:17.364Z,29.322
2023-04-01T19:05:17.130Z,29.336
2023-04-01T19:10:17.123Z,29.326
2023-04-01T19:15:17.149Z,29.331
2023-04-01T19:20:17.220Z,29.317
2023-04-01T19:25:17.170Z,29.320
2023-04-01T19:30:17.234Z,29.326
2023-04-01T19:35:17.270Z,29.327
2023-04-01T19:40:17.107Z,29.337
2023-04-01T19:45:17.184Z,29.326
2023-04-01T19:50:17.330Z,29.319
2023-04-01T19:55:17.082Z,29.326
2023-04-01T20:00:17.185Z,29.332
2023-04-01T20:05:17.153Z,29.293
2023-04-01T20:10:17.298Z,29.297
2023-04-01T20:15:17.279Z,29.295
2023-04-01T20:20:17.316Z,29.295
2023-04-01T20:25:17.298Z,29.293
2023-04-01T20:30:17.341Z,29.292
2023-04-01T20:35:17.352Z,29.289
2023-04-01T20:40:17.221Z,29.294
2023-04-01T20:45:17.327Z,29.292
2023-04-01T20:50:17.378Z,29.295
2023-04-01T20:55:17.380Z,29.296
2023-04-01T21:00:17.323Z,29.295
2023-04-01T21:05:17.255Z,29.296
2023-04-01T21:10:17.331Z,29.291
2023-04-01T21:15:17.470Z,29.294
2023-04-01T21:20:17.440Z,29.285
2023-04-01T21:25:17.413Z,29.282
2023-04-01T21:30:17.468Z,29.274
2023-04-01T21:35:17.468Z,29.272
2023-04-01T21:40:15.436Z,29.277
2023-04-01T21:45:15.403Z,29.280
2023-04-01T21:50:15.447Z,29.280
2023-04-01T21:55:18.631Z,29.282
2023-04-01T22:00:15.412Z,29.285
2023-04-01T22:05:15.421Z,29.290
2023-04-01T22:10:15.566Z,29.298
2023-04-01T22:15:15.666Z,29.301
2023-04-01T22:20:15.629Z,29.303
2023-04-01T22:25:15.558Z,29.305
2023-04-01T22:30:15.606Z,29.307
2023-04-01T22:35:15.480Z,29.303
2023-04-01T22:40:15.511Z,29.302
2023-04-01T22:45:15.704Z,29.304
2023-04-01T22:50:15.656Z,29.303
2023-04-01T22:55:15.548Z,29.302
2023-04-01T23:00:15.775Z,29.296
2023-04-01T23:05:15.623Z,29.295
2023-04-01T23:10:15.540Z,29.298
2023-04-01T23:15:15.602Z,29.298
2023-04-01T23:20:15.709Z,29.293
2023-04-01T23:25:15.599Z,29.298
2023-04-01T23:30:15.676Z,29.300
2023-04-01T23:35:15.833Z,29.301
2023-04-01T23:40:15.824Z,29.297
2023-04-01T23:45:15.608Z,29.297
2023-04-01T23:50:15.643Z,29.297
2023-04-01T23:55:15.718Z,29.297
